Time;durP1;ratioP1;P1;durP2;ratioP2;P2;SDS_P1;SDS_P2;PMS_P1;PMS_P2;Temp;Humidity;BMP_temperature;BMP_pressure;BME280_temperature;BME280_humidity;BME280_pressure;Samples;Min_cycle;Max_cycle;Signal;HPM_P1;HPM_P2
2021/04/14 00:01:36;;;;;;;7.45;3.40;;;3.60;68.00;;;2.32;56.48;99579.53;5048034;28;20407;-80
2021/04/14 00:04:05;;;;;;;8.27;3.60;;;3.60;68.30;;;2.00;57.71;99573.88;5040788;28;20485;-80
2021/04/14 00:06:31;;;;;;;5.45;3.28;;;3.40;68.90;;;2.01;57.13;99575.53;5042977;28;20413;-84
2021/04/14 00:08:57;;;;;;;7.75;3.67;;;3.30;68.90;;;1.96;57.61;99577.72;5043894;28;20481;-84
2021/04/14 00:11:24;;;;;;;11.55;3.90;;;3.20;69.70;;;1.87;57.10;99574.19;5045421;28;20464;-83
2021/04/14 00:13:50;;;;;;;5.07;3.20;;;3.20;68.90;;;1.92;56.90;99568.53;5043227;28;20426;-83
2021/04/14 00:16:22;;;;;;;6.25;3.00;;;3.20;68.80;;;2.05;56.56;99569.03;5043597;28;20423;-84
2021/04/14 00:18:49;;;;;;;5.32;3.30;;;3.30;68.50;;;1.94;56.56;99566.59;5027708;28;20427;-80
2021/04/14 00:21:19;;;;;;;6.50;3.30;;;3.20;68.50;;;1.98;56.30;99560.13;5027983;28;20678;-81
2021/04/14 00:23:45;;;;;;;5.72;3.25;;;3.20;68.40;;;1.91;56.77;99561.66;5043570;28;20663;-80
2021/04/14 00:26:14;;;;;;;5.95;2.90;;;3.10;68.70;;;1.98;56.61;99560.13;5044148;28;20434;-79
2021/04/14 00:28:41;;;;;;;10.02;3.40;;;3.20;68.70;;;2.06;56.25;99565.47;5043266;28;20417;-81
2021/04/14 00:31:08;;;;;;;5.03;3.08;;;3.20;68.20;;;2.02;56.44;99560.66;5045081;28;20403;-78
2021/04/14 00:33:34;;;;;;;11.88;3.03;;;3.30;68.10;;;1.98;56.63;99564.53;5044929;28;20465;-80
2021/04/14 00:36:01;;;;;;;7.40;2.83;;;3.20;68.40;;;1.83;56.80;99564.16;5043826;28;20414;-81
2021/04/14 00:38:28;;;;;;;3.83;2.75;;;3.10;68.70;;;1.78;56.45;99558.53;5041923;28;20514;-80
2021/04/14 00:40:59;;;;;;;6.00;3.28;;;3.10;68.40;;;1.74;56.61;99562.38;5043107;28;20426;-80
2021/04/14 00:43:29;;;;;;;5.30;3.17;;;3.00;68.10;;;1.87;56.38;99553.31;5043231;28;20890;-80
2021/04/14 00:45:56;;;;;;;4.55;2.92;;;3.10;68.20;;;1.88;55.73;99554.91;5042593;28;20415;-81
2021/04/14 00:48:22;;;;;;;6.22;3.10;;;3.10;67.70;;;1.83;56.15;99551.09;5041333;28;20419;-81
2021/04/14 00:50:49;;;;;;;5.63;2.83;;;3.10;67.90;;;1.94;55.61;99551.75;5043810;28;20422;-79
2021/04/14 00:53:16;;;;;;;8.77;3.40;;;3.20;67.80;;;1.79;56.38;99550.56;5043014;28;20403;-79
2021/04/14 00:55:44;;;;;;;6.65;3.40;;;3.00;68.20;;;1.58;56.54;99546.50;5042514;28;20497;-79
2021/04/14 00:58:12;;;;;;;6.78;3.03;;;2.90;68.40;;;1.66;56.28;99550.03;5042508;28;20689;-80
2021/04/14 01:00:41;;;;;;;5.90;3.20;;;3.00;68.40;;;1.53;56.91;99552.13;5042361;28;20485;-78
2021/04/14 01:03:13;;;;;;;9.48;3.42;;;2.90;68.60;;;1.68;56.86;99545.50;5043045;28;20407;-80
2021/04/14 01:05:41;;;;;;;6.68;3.25;;;2.90;68.90;;;1.72;57.23;99541.66;5046252;28;20514;-80
2021/04/14 01:08:07;;;;;;;5.43;3.00;;;2.90;69.60;;;1.59;58.05;99537.69;5040975;28;20793;-79
2021/04/14 01:10:33;;;;;;;5.63;3.17;;;2.80;70.10;;;1.50;57.93;99542.78;5042692;28;20395;-80
2021/04/14 01:13:02;;;;;;;8.10;3.30;;;2.80;69.60;;;1.58;58.16;99542.09;5041174;28;20431;-84
2021/04/14 01:15:32;;;;;;;6.90;3.50;;;2.80;70.10;;;1.43;57.91;99533.88;5042473;28;20684;-81
2021/04/14 01:17:59;;;;;;;6.70;3.30;;;2.70;70.10;;;1.64;57.78;99538.94;5023586;28;20415;-79
2021/04/14 01:20:25;;;;;;;6.72;3.25;;;2.80;70.00;;;1.74;56.92;99536.28;5041968;28;20520;-85
2021/04/14 01:22:52;;;;;;;8.00;2.90;;;2.90;69.30;;;1.47;57.45;99535.25;5042272;28;20793;-84
2021/04/14 01:25:25;;;;;;;5.75;3.03;;;2.80;69.50;;;1.32;57.90;99536.66;5024087;28;20431;-85
2021/04/14 01:27:51;;;;;;;5.88;3.40;;;2.60;70.00;;;1.33;58.17;99535.69;5043368;28;20403;-84
2021/04/14 01:30:26;;;;;;;7.88;3.10;;;2.60;70.30;;;1.27;57.92;99538.03;5042681;28;20426;-84
2021/04/14 01:32:53;;;;;;;5.67;2.80;;;2.50;70.40;;;1.26;57.97;99539.84;5042593;28;20484;-84
2021/04/14 01:35:22;;;;;;;7.18;3.20;;;2.60;70.20;;;1.24;58.63;99536.53;5042118;28;20545;-79
2021/04/14 01:37:48;;;;;;;9.32;3.55;;;2.50;70.70;;;1.40;58.10;99535.97;5044246;28;20399;-79
2021/04/14 01:40:18;;;;;;;6.38;2.92;;;2.60;70.80;;;1.30;58.70;99546.41;5043791;28;20415;-84
2021/04/14 01:42:44;;;;;;;5.22;3.20;;;2.60;70.90;;;1.26;59.18;99533.78;5047408;28;20426;-80
2021/04/14 01:45:14;;;;;;;4.68;3.08;;;2.60;71.20;;;1.20;59.02;99535.19;5045875;28;20584;-83
2021/04/14 01:47:40;;;;;;;7.72;3.40;;;2.50;71.60;;;1.23;59.67;99536.66;5048915;28;20427;-84
2021/04/14 01:50:08;;;;;;;4.95;3.40;;;2.40;72.10;;;1.29;59.40;99536.09;5053837;28;20668;-84
2021/04/14 01:52:34;;;;;;;7.95;3.30;;;2.50;72.30;;;1.14;59.61;99536.53;5052607;28;20395;-84
2021/04/14 01:55:03;;;;;;;7.72;3.63;;;2.50;72.10;;;1.11;59.93;99538.59;5055598;28;20402;-85
2021/04/14 01:57:31;;;;;;;6.45;3.13;;;2.40;72.40;;;0.96;59.92;99535.59;5055276;28;20414;-84
2021/04/14 01:59:57;;;;;;;6.68;3.50;;;2.30;72.60;;;0.83;60.69;99531.63;5034847;28;20547;-83
2021/04/14 02:02:23;;;;;;;4.82;3.03;;;2.20;73.20;;;0.92;60.56;99529.00;5034495;28;20427;-84
2021/04/14 02:04:50;;;;;;;6.07;3.50;;;2.20;73.60;;;0.93;60.32;99525.44;5047402;28;20423;-84
2021/04/14 02:07:16;;;;;;;8.55;3.70;;;2.30;73.20;;;0.99;60.80;99526.66;5041280;28;20446;-84
2021/04/14 02:09:43;;;;;;;8.05;3.28;;;2.20;73.40;;;1.11;60.11;99520.34;5040129;28;20425;-79
2021/04/14 02:12:10;;;;;;;7.00;3.80;;;2.40;73.40;;;0.85;61.38;99524.47;5039991;28;20507;-80
2021/04/14 02:14:38;;;;;;;8.10;3.95;;;2.20;73.60;;;0.90;61.43;99525.72;5021982;28;20433;-79
2021/04/14 02:17:04;;;;;;;6.18;3.42;;;2.20;74.60;;;0.82;61.93;99527.34;5039987;28;20666;-79
2021/04/14 02:19:30;;;;;;;6.40;3.80;;;2.20;74.70;;;0.81;61.98;99526.53;5042306;28;20410;-79
2021/04/14 02:21:57;;;;;;;9.13;4.00;;;2.10;75.00;;;0.89;61.67;99529.28;5043123;28;20675;-80
2021/04/14 02:24:23;;;;;;;7.13;3.63;;;2.20;75.00;;;0.63;62.33;99528.97;5043333;28;20435;-79
2021/04/14 02:26:49;;;;;;;6.75;3.83;;;2.00;75.30;;;0.62;62.92;99526.50;5041826;28;20446;-79
2021/04/14 02:29:15;;;;;;;8.18;4.05;;;2.00;75.90;;;0.58;63.46;99525.97;5037775;28;20479;-79
2021/04/14 02:31:43;;;;;;;7.90;4.03;;;1.90;76.50;;;0.58;63.95;99525.13;5037555;28;20447;-79
2021/04/14 02:34:13;;;;;;;5.70;3.85;;;1.90;77.20;;;0.78;63.04;99521.56;5018626;28;20430;-80
2021/04/14 02:36:40;;;;;;;8.55;4.50;;;2.00;77.10;;;0.73;63.54;99524.59;5036911;28;20451;-79
2021/04/14 02:39:08;;;;;;;11.32;4.22;;;2.00;77.10;;;0.83;63.51;99524.59;5037276;28;20820;-80
2021/04/14 02:41:34;;;;;;;11.55;3.63;;;2.10;77.00;;;0.81;63.49;99523.09;5038168;28;20423;-79
2021/04/14 02:44:00;;;;;;;8.93;4.03;;;2.10;76.80;;;0.96;63.00;99521.72;5037569;28;20410;-80
2021/04/14 02:46:26;;;;;;;6.93;3.90;;;2.10;76.70;;;0.89;62.71;99520.63;5038626;28;20813;-79
2021/04/14 02:48:57;;;;;;;7.95;4.15;;;2.20;75.90;;;0.68;63.47;99518.13;5038613;28;20476;-78
2021/04/14 02:51:23;;;;;;;6.47;3.80;;;2.00;76.60;;;0.67;63.82;99508.69;5038872;28;20540;-81
2021/04/14 02:53:50;;;;;;;7.22;3.60;;;2.00;77.20;;;0.68;63.48;99513.75;5038450;28;20426;-81
2021/04/14 02:56:16;;;;;;;10.73;4.13;;;2.00;76.90;;;0.67;63.24;99519.13;5039111;28;20890;-79
2021/04/14 02:58:42;;;;;;;6.68;3.83;;;2.00;76.80;;;0.81;62.16;99510.88;5038198;28;20429;-79
2021/04/14 03:01:08;;;;;;;6.30;3.60;;;2.10;76.10;;;0.69;62.45;99514.56;5021356;28;20480;-80
2021/04/14 03:03:34;;;;;;;6.85;3.53;;;2.00;75.80;;;0.68;62.23;99512.91;5037697;28;20414;-80
2021/04/14 03:06:02;;;;;;;5.15;3.15;;;2.00;75.50;;;0.66;61.47;99518.28;5037864;28;20415;-79
2021/04/14 03:08:28;;;;;;;8.25;3.80;;;1.90;74.70;;;0.72;61.27;99511.69;5036705;28;20469;-79
2021/04/14 03:10:54;;;;;;;8.82;3.50;;;1.90;74.70;;;0.67;61.43;99508.69;5038653;28;20835;-80
2021/04/14 03:13:20;;;;;;;6.75;3.75;;;2.00;74.20;;;0.70;61.38;99504.00;5042146;28;20469;-80
2021/04/14 03:15:46;;;;;;;8.70;3.40;;;1.90;74.80;;;0.46;61.96;99510.56;5041983;28;20403;-80
2021/04/14 03:18:15;;;;;;;10.43;4.05;;;1.80;74.90;;;0.43;62.25;99503.03;5041624;28;20410;-80
2021/04/14 03:20:42;;;;;;;5.57;3.43;;;1.80;75.60;;;0.48;62.87;99506.88;5042640;28;20464;-80
2021/04/14 03:23:10;;;;;;;8.43;3.60;;;1.70;76.00;;;0.22;63.32;99505.75;5045209;28;20413;-81
2021/04/14 03:25:37;;;;;;;9.97;4.07;;;1.60;76.30;;;0.12;63.87;99497.06;5043773;28;20525;-81
2021/04/14 03:28:05;;;;;;;9.20;3.80;;;1.50;77.10;;;0.33;63.25;99492.59;5024980;28;20705;-81
2021/04/14 03:30:32;;;;;;;7.85;3.72;;;1.50;77.10;;;0.38;62.87;99488.63;5042868;28;20419;-81
2021/04/14 03:32:58;;;;;;;7.65;3.88;;;1.60;76.80;;;0.31;63.15;99484.91;5042568;28;20635;-81
2021/04/14 03:35:27;;;;;;;8.98;3.75;;;1.60;76.70;;;0.34;63.32;99487.25;5042728;28;20407;-81
2021/04/14 03:37:53;;;;;;;8.27;4.00;;;1.60;76.80;;;0.16;64.13;99486.25;5042136;28;20427;-80
2021/04/14 03:40:20;;;;;;;11.70;4.10;;;1.50;77.30;;;0.12;64.38;99481.44;5041058;28;20497;-80
2021/04/14 03:42:47;;;;;;;7.80;4.45;;;1.50;78.00;;;0.20;64.69;99486.81;5042572;28;20434;-80
2021/04/14 03:45:18;;;;;;;7.00;3.75;;;1.50;78.60;;;0.26;64.59;99487.09;5042129;28;20419;-80
2021/04/14 03:47:45;;;;;;;9.43;4.15;;;1.60;78.60;;;0.23;65.09;99484.75;5041119;28;20742;-80
2021/04/14 03:50:15;;;;;;;7.80;4.10;;;1.60;78.50;;;0.21;64.80;99476.25;5041635;28;20421;-81
2021/04/14 03:52:42;;;;;;;9.57;4.70;;;1.60;78.60;;;0.14;65.56;99487.34;5042423;28;20413;-84
2021/04/14 03:55:10;;;;;;;9.13;4.30;;;1.50;79.10;;;0.24;64.68;99480.34;5024476;28;20458;-85
2021/04/14 03:57:37;;;;;;;11.65;4.13;;;1.60;78.50;;;0.30;64.83;99483.25;5025637;28;20427;-86
2021/04/14 04:00:06;;;;;;;6.60;3.70;;;1.60;78.50;;;0.25;63.59;99480.22;5042717;28;20414;-85
2021/04/14 04:02:32;;;;;;;8.80;4.03;;;1.50;77.30;;;0.34;63.02;99482.03;5042539;28;20410;-85
2021/04/14 04:04:58;;;;;;;7.70;3.63;;;1.60;76.80;;;0.20;63.16;99485.03;5042921;28;20812;-84
2021/04/14 04:07:24;;;;;;;6.57;3.53;;;1.50;76.40;;;0.15;62.96;99487.19;5043073;28;20407;-85
2021/04/14 04:09:50;;;;;;;7.20;3.90;;;1.50;76.70;;;0.26;63.46;99481.88;5027946;28;20420;-84
2021/04/14 04:12:17;;;;;;;10.80;4.00;;;1.50;77.10;;;0.37;62.92;99487.00;5022879;28;20441;-83
2021/04/14 04:14:49;;;;;;;8.07;4.40;;;1.60;77.00;;;0.32;63.11;99490.94;5021859;28;20486;-84
2021/04/14 04:17:16;;;;;;;6.40;3.65;;;1.60;77.00;;;0.40;63.49;99488.47;5021723;28;20456;-83
2021/04/14 04:19:42;;;;;;;9.77;4.10;;;1.60;77.20;;;0.23;63.79;99489.94;5021717;28;20451;-85
2021/04/14 04:22:09;;;;;;;5.63;3.40;;;1.60;77.40;;;0.15;64.77;99491.59;5021383;28;20405;-84
2021/04/14 04:24:35;;;;;;;7.07;3.88;;;1.50;78.20;;;0.02;65.28;99489.22;5020628;28;20444;-83
2021/04/14 04:27:02;;;;;;;15.07;4.65;;;1.40;78.70;;;-0.09;65.79;99490.16;5025018;28;20699;-84
2021/04/14 04:29:28;;;;;;;14.15;4.50;;;1.30;79.20;;;-0.11;65.98;99488.63;5021883;28;20413;-85
2021/04/14 04:31:55;;;;;;;9.50;4.10;;;1.30;79.70;;;-0.07;65.63;99492.59;5022044;28;20413;-85
2021/04/14 04:34:22;;;;;;;9.02;4.05;;;1.30;79.80;;;0.06;65.83;99497.59;5020325;28;20420;-84
2021/04/14 04:36:49;;;;;;;6.85;4.03;;;1.30;79.70;;;0.12;65.27;99495.28;5020373;28;20425;-84
2021/04/14 04:39:15;;;;;;;11.10;4.60;;;1.40;79.30;;;0.10;65.44;99497.19;5019705;28;20420;-86
2021/04/14 04:41:41;;;;;;;15.27;5.25;;;1.40;79.40;;;0.06;65.95;99495.00;5022145;28;20405;-85
2021/04/14 04:44:07;;;;;;;11.85;4.65;;;1.40;79.80;;;0.18;66.37;99499.97;5023473;28;20445;-85
2021/04/14 04:46:34;;;;;;;10.23;4.32;;;1.40;80.50;;;0.08;65.86;99503.47;5024373;28;20447;-85
2021/04/14 04:49:01;;;;;;;12.75;4.60;;;1.40;80.10;;;0.13;66.26;99501.31;5025506;28;20416;-85
2021/04/14 04:51:27;;;;;;;7.03;4.33;;;1.40;80.40;;;0.12;66.31;99505.69;5021708;28;20405;-83
2021/04/14 04:53:56;;;;;;;8.95;4.82;;;1.50;80.40;;;-0.03;66.48;99510.44;5020590;28;20443;-85
2021/04/14 04:56:22;;;;;;;8.52;4.53;;;1.40;81.30;;;-0.05;66.52;99506.31;5021786;28;20535;-85
2021/04/14 04:58:48;;;;;;;8.30;4.68;;;1.30;80.90;;;-0.07;66.95;99510.81;5020619;28;20474;-83
2021/04/14 05:01:15;;;;;;;10.25;4.80;;;1.30;81.30;;;0.11;66.67;99505.81;5021012;28;20470;-84
2021/04/14 05:03:42;;;;;;;11.85;4.90;;;1.40;81.40;;;0.08;66.75;99511.28;5021427;28;20431;-85
2021/04/14 05:06:09;;;;;;;13.75;6.57;;;1.40;80.90;;;0.15;66.58;99508.03;5035764;28;20468;-84
2021/04/14 05:08:35;;;;;;;17.98;8.55;;;1.50;80.70;;;0.14;66.55;99510.78;5032968;28;20409;-84
2021/04/14 05:11:02;;;;;;;9.95;5.72;;;1.50;80.60;;;0.28;66.30;99513.00;5032717;28;20408;-84
2021/04/14 05:13:28;;;;;;;12.38;6.20;;;1.60;80.60;;;0.28;66.01;99510.41;5027621;28;20823;-82
2021/04/14 05:15:54;;;;;;;9.55;4.90;;;1.60;80.30;;;0.20;66.15;99510.25;5022302;28;20409;-85
2021/04/14 05:18:21;;;;;;;12.43;5.13;;;1.50;80.20;;;0.33;65.77;99516.03;5018926;28;20535;-84
2021/04/14 05:20:47;;;;;;;13.20;4.85;;;1.60;80.40;;;0.38;65.99;99516.44;5021942;28;20412;-83
2021/04/14 05:23:14;;;;;;;11.35;4.72;;;1.70;80.30;;;0.57;65.23;99521.69;5020683;28;20423;-83
2021/04/14 05:25:44;;;;;;;10.73;4.63;;;1.80;79.80;;;0.79;64.67;99523.22;5024213;28;20400;-83
2021/04/14 05:28:13;;;;;;;13.70;4.47;;;2.00;79.30;;;1.06;62.43;99520.75;5029190;28;20464;-83
2021/04/14 05:30:40;;;;;;;10.75;4.07;;;2.20;77.30;;;1.29;61.31;99516.06;5025137;28;20802;-85
2021/04/14 05:33:08;;;;;;;10.05;4.07;;;2.50;75.70;;;1.41;60.57;99524.56;5025120;28;20424;-85
2021/04/14 05:35:35;;;;;;;8.50;4.35;;;2.60;74.60;;;1.59;60.04;99519.44;5025721;28;20423;-83
2021/04/14 05:38:02;;;;;;;10.13;4.30;;;2.70;74.00;;;1.66;59.67;99529.16;5025853;28;20425;-85
2021/04/14 05:40:29;;;;;;;7.63;4.43;;;2.90;73.40;;;1.72;59.48;99526.00;5022462;28;20847;-85
2021/04/14 05:42:55;;;;;;;7.97;4.25;;;2.90;73.10;;;1.81;59.20;99530.34;5020725;28;20815;-84
2021/04/14 05:45:24;;;;;;;8.85;4.45;;;3.00;72.80;;;1.86;59.12;99536.00;5020476;28;20479;-84
2021/04/14 05:47:50;;;;;;;11.13;4.97;;;3.10;72.60;;;1.94;59.40;99525.66;5020788;28;20428;-84
2021/04/14 05:50:20;;;;;;;11.15;5.75;;;3.10;72.70;;;1.94;59.38;99538.72;5020283;28;20451;-84
2021/04/14 05:52:47;;;;;;;10.05;5.32;;;3.10;73.00;;;2.09;59.21;99533.00;5022163;28;20408;-85
2021/04/14 05:55:14;;;;;;;15.30;5.68;;;3.20;73.00;;;2.09;58.95;99527.78;5021400;28;20427;-86
2021/04/14 05:57:41;;;;;;;15.18;5.53;;;3.30;72.60;;;2.15;58.83;99533.25;5021849;28;20417;-85
2021/04/14 06:00:13;;;;;;;10.90;5.77;;;3.30;72.30;;;2.34;58.24;99540.97;5020573;28;20422;-85
2021/04/14 06:02:42;;;;;;;17.98;6.07;;;3.40;71.90;;;2.49;58.06;99538.69;5022411;28;20420;-86
2021/04/14 06:05:10;;;;;;;14.60;5.93;;;3.60;71.60;;;2.53;58.07;99532.22;5022148;28;20416;-85
2021/04/14 06:07:36;;;;;;;17.38;6.35;;;3.60;71.30;;;2.52;58.10;99533.19;5023037;28;20404;-85
2021/04/14 06:10:05;;;;;;;14.80;6.25;;;3.70;71.10;;;2.61;57.59;99537.53;5022464;28;20416;-84
2021/04/14 06:12:31;;;;;;;11.35;6.05;;;3.70;71.30;;;2.78;57.15;99538.53;5021507;28;20507;-86
2021/04/14 06:14:58;;;;;;;16.40;6.43;;;3.80;71.50;;;2.91;57.05;99532.91;5022262;28;20467;-86
2021/04/14 06:17:25;;;;;;;15.50;6.53;;;4.00;70.20;;;3.02;56.20;99535.28;5026950;28;20459;-84
2021/04/14 06:19:51;;;;;;;13.73;6.10;;;4.10;69.60;;;3.11;56.06;99540.47;5023819;28;20501;-86
2021/04/14 06:22:17;;;;;;;12.63;6.07;;;4.20;69.00;;;3.11;56.09;99537.03;5021386;28;20491;-82
2021/04/14 06:24:44;;;;;;;14.63;6.37;;;4.20;68.60;;;3.25;55.50;99544.31;5021657;28;20475;-82
2021/04/14 06:27:15;;;;;;;19.08;6.45;;;4.30;68.60;;;3.32;55.35;99537.50;5020819;28;20439;-82
2021/04/14 06:29:41;;;;;;;16.53;6.83;;;4.40;68.30;;;3.38;55.17;99533.50;5026213;28;20451;-78
2021/04/14 06:32:09;;;;;;;19.02;7.20;;;4.50;68.00;;;3.50;55.13;99547.97;5029576;28;20641;-78
2021/04/14 06:34:35;;;;;;;17.40;6.80;;;4.60;68.10;;;3.65;55.08;99545.59;5025553;28;20439;-80
2021/04/14 06:37:01;;;;;;;16.45;6.65;;;4.70;67.90;;;3.66;54.73;99537.59;5020815;28;20475;-80
2021/04/14 06:39:32;;;;;;;15.13;6.60;;;4.80;67.50;;;3.76;54.60;99535.69;5005178;28;20543;-78
2021/04/14 06:42:21;;;;;;;14.18;6.45;;;4.80;67.40;;;3.85;54.21;99541.78;5023060;28;20412;-80
2021/04/14 06:45:07;;;;;;;16.48;6.68;;;4.90;66.90;;;3.89;54.46;99543.97;5019041;28;20444;-79
2021/04/14 06:47:55;;;;;;;19.07;6.70;;;5.00;66.90;;;3.98;54.03;99541.41;5022343;28;20447;-79
2021/04/14 06:50:29;;;;;;;14.05;7.03;;;5.10;66.70;;;4.02;53.80;99542.72;5028700;28;20420;-80
2021/04/14 06:53:10;;;;;;;13.80;6.60;;;5.10;66.30;;;3.97;53.87;99539.75;5005847;28;20526;-80
2021/04/14 06:55:42;;;;;;;16.90;6.95;;;5.00;66.20;;;3.86;54.27;99539.03;5021083;28;20451;-80
2021/04/14 06:58:15;;;;;;;15.02;6.72;;;5.00;66.20;;;3.86;54.11;99546.06;5022630;28;20867;-81
2021/04/14 07:00:45;;;;;;;11.65;5.82;;;4.90;66.40;;;3.82;53.89;99539.50;5027315;28;20470;-81
2021/04/14 07:03:19;;;;;;;19.23;6.43;;;4.90;66.30;;;3.79;54.15;99537.19;5005924;28;20444;-80
2021/04/14 07:05:48;;;;;;;19.40;6.70;;;4.90;66.20;;;3.85;54.21;99541.78;5025350;28;20417;-82
2021/04/14 07:08:22;;;;;;;20.23;7.05;;;4.90;66.50;;;3.89;53.90;99540.53;5022180;28;20462;-80
2021/04/14 07:10:54;;;;;;;20.57;7.67;;;5.00;66.40;;;3.92;54.63;99536.75;5019853;28;20401;-80
2021/04/14 07:13:20;;;;;;;18.63;8.07;;;5.00;67.10;;;3.84;55.18;99543.59;5018411;28;20819;-79
2021/04/14 07:15:51;;;;;;;20.42;8.30;;;5.00;67.60;;;3.74;55.67;99544.69;5022182;28;20451;-81
2021/04/14 07:18:32;;;;;;;31.48;8.50;;;4.90;67.80;;;3.71;55.64;99539.75;5020845;28;20447;-81
2021/04/14 07:21:06;;;;;;;22.77;8.65;;;4.90;68.10;;;3.88;55.45;99538.88;5020277;28;20435;-82
2021/04/14 07:23:46;;;;;;;11.43;6.60;;;4.90;68.30;;;4.07;53.96;99537.81;5018459;28;20425;-82
2021/04/14 07:26:20;;;;;;;12.77;4.97;;;5.10;67.00;;;4.14;52.44;99544.88;5018406;28;20401;-82
2021/04/14 07:29:14;;;;;;;13.68;4.93;;;5.20;64.60;;;3.61;53.84;99539.06;5019905;28;20492;-81
2021/04/14 07:31:50;;;;;;;12.63;5.32;;;4.70;65.60;;;3.61;53.95;99537.22;5019060;28;20408;-82
2021/04/14 07:34:40;;;;;;;9.05;5.30;;;4.70;66.20;;;3.84;53.70;99533.13;5019763;28;20451;-82
2021/04/14 07:37:12;;;;;;;14.30;5.68;;;4.80;66.80;;;3.93;53.19;99533.97;5019463;28;20874;-80
2021/04/14 07:39:45;;;;;;;14.82;5.28;;;5.00;65.50;;;4.12;52.89;99530.31;5020242;28;20844;-80
2021/04/14 07:42:23;;;;;;;12.52;5.53;;;5.10;65.00;;;4.33;52.13;99525.47;5020368;28;20431;-82
2021/04/14 07:45:16;;;;;;;15.75;5.50;;;5.30;64.10;;;4.40;51.95;99530.91;5023159;28;20413;-81
2021/04/14 07:47:48;;;;;;;10.77;5.00;;;5.40;63.80;;;4.52;51.44;99530.44;5003538;28;20428;-80
2021/04/14 07:50:16;;;;;;;15.68;5.93;;;5.60;63.40;;;4.79;51.25;99526.75;5005186;28;20440;-81
2021/04/14 07:52:42;;;;;;;20.00;9.30;;;5.80;63.20;;;5.09;50.89;99532.38;5025106;28;20664;-81
2021/04/14 07:55:35;;;;;;;25.67;8.48;;;6.00;62.70;;;5.28;50.26;99529.41;5008754;28;20488;-82
2021/04/14 07:58:09;;;;;;;21.02;6.68;;;6.30;61.90;;;5.45;49.75;99528.41;4975085;28;20439;-81
2021/04/14 08:00:40;;;;;;;17.42;6.43;;;6.40;61.20;;;5.67;49.65;99519.84;5028717;28;20412;-82
2021/04/14 08:03:16;;;;;;;15.10;7.03;;;6.60;61.20;;;5.82;48.74;99523.44;5029819;28;20412;-83
2021/04/14 08:05:44;;;;;;;15.05;5.25;;;6.80;60.10;;;5.93;47.90;99521.47;5025615;28;20412;-83
2021/04/14 08:08:23;;;;;;;14.55;5.72;;;6.90;59.20;;;6.03;47.69;99528.16;5024328;28;20746;-84
2021/04/14 08:10:58;;;;;;;11.02;5.40;;;7.00;58.80;;;5.54;49.37;99519.53;5023818;28;20448;-84
2021/04/14 08:13:30;;;;;;;11.82;5.20;;;6.90;59.30;;;5.76;48.65;99518.03;5023636;28;20484;-82
2021/04/14 08:15:56;;;;;;;16.80;5.45;;;6.70;59.80;;;5.74;48.47;99518.19;5023232;28;20421;-85
2021/04/14 08:18:28;;;;;;;11.05;4.55;;;6.80;59.40;;;5.75;48.50;99521.63;5023728;28;20423;-85
2021/04/14 08:21:15;;;;;;;10.82;4.70;;;6.80;60.00;;;6.03;47.79;99515.00;5007431;28;20439;-83
2021/04/14 08:23:54;;;;;;;20.60;5.18;;;7.00;58.90;;;5.79;48.25;99504.53;5023298;28;20409;-84
2021/04/14 08:26:21;;;;;;;13.10;4.47;;;7.00;58.60;;;6.14;47.50;99509.41;5023046;28;20487;-83
2021/04/14 08:28:51;;;;;;;14.00;4.85;;;7.00;58.70;;;6.10;47.38;99512.53;5023407;28;20416;-84
2021/04/14 08:34:19;;;;;;;15.43;4.53;;;7.30;57.60;;;6.43;46.42;99502.69;5025809;28;20397;-82
2021/04/14 08:37:01;;;;;;;12.73;4.80;;;7.40;57.40;;;6.51;46.67;99507.91;5025461;28;20490;-82
2021/04/14 08:39:39;;;;;;;13.52;4.70;;;7.50;57.40;;;6.52;46.72;99502.47;5025559;28;20518;-82
2021/04/14 08:42:15;;;;;;;10.82;4.32;;;7.60;57.30;;;6.56;46.80;99498.50;5026996;28;20446;-84
2021/04/14 08:44:44;;;;;;;11.02;4.35;;;7.50;57.30;;;6.06;47.48;99506.78;5024304;28;20416;-82
2021/04/14 08:47:18;;;;;;;11.77;4.50;;;7.40;57.60;;;6.33;47.77;99499.44;5026336;28;20504;-82
2021/04/14 08:49:47;;;;;;;11.90;4.68;;;7.20;58.70;;;6.29;47.28;99500.78;5028582;28;20782;-83
2021/04/14 08:52:18;;;;;;;12.65;4.65;;;7.30;57.70;;;6.55;46.67;99496.84;5027205;28;20436;-82
2021/04/14 08:54:44;;;;;;;12.32;4.00;;;7.50;57.50;;;6.70;45.76;99499.56;5028404;28;20415;-82
2021/04/14 08:57:11;;;;;;;7.68;3.67;;;7.60;56.50;;;6.94;44.91;99493.31;5026263;28;20511;-83
2021/04/14 08:59:39;;;;;;;7.07;3.60;;;7.80;55.80;;;6.93;44.54;99489.84;5026221;28;20512;-83
2021/04/14 09:02:09;;;;;;;7.63;3.38;;;7.90;55.10;;;7.10;43.99;99489.72;5028033;28;20448;-84
2021/04/14 09:04:36;;;;;;;8.63;3.80;;;8.10;54.70;;;7.19;43.95;99484.22;5025550;28;20444;-83
2021/04/14 09:07:04;;;;;;;14.35;4.40;;;8.10;54.40;;;6.98;44.59;99489.34;5027952;28;20488;-83
2021/04/14 09:09:45;;;;;;;10.70;3.42;;;8.10;54.50;;;7.14;44.16;99483.91;5028376;28;20446;-83
2021/04/14 09:12:13;;;;;;;9.35;4.30;;;8.10;54.60;;;6.99;43.24;99485.72;5028325;28;20483;-84
2021/04/14 09:14:39;;;;;;;10.50;3.67;;;8.10;53.30;;;7.16;42.76;99474.03;5024384;28;20679;-84
2021/04/14 09:17:18;;;;;;;7.83;3.17;;;8.10;52.80;;;7.32;43.01;99478.34;5025077;28;20432;-84
2021/04/14 09:19:45;;;;;;;9.95;4.80;;;8.30;53.30;;;7.58;42.74;99476.13;5025251;28;20424;-84
2021/04/14 09:22:23;;;;;;;14.32;5.18;;;8.40;53.10;;;7.89;42.90;99469.88;5008130;28;20428;-82
2021/04/14 09:24:53;;;;;;;12.85;3.63;;;8.70;53.20;;;7.93;42.04;99474.59;5025210;28;20411;-84
2021/04/14 09:27:33;;;;;;;9.30;3.60;;;8.90;52.20;;;8.15;41.23;99475.47;5025206;28;20799;-84
2021/04/14 09:30:17;;;;;;;13.45;3.92;;;9.00;51.40;;;7.92;41.06;99472.13;5023544;28;20413;-85
2021/04/14 09:33:14;;;;;;;7.32;3.28;;;8.90;51.20;;;8.21;40.22;99473.91;5023594;28;20419;-85
2021/04/14 09:35:56;;;;;;;12.32;4.03;;;9.00;50.40;;;8.38;39.40;99467.44;5022652;28;20415;-84
2021/04/14 09:38:36;;;;;;;7.38;3.78;;;9.30;49.40;;;8.68;38.63;99474.28;5025686;28;20409;-85
2021/04/14 09:41:28;;;;;;;8.70;2.95;;;9.50;48.60;;;8.71;37.91;99468.63;5025121;28;20417;-85
2021/04/14 09:43:57;;;;;;;11.10;4.72;;;9.70;47.30;;;8.97;38.54;99464.59;5008691;28;20425;-85
2021/04/14 09:46:30;;;;;;;12.10;3.85;;;9.70;48.10;;;8.95;37.46;99456.06;5024630;28;20420;-84
2021/04/14 09:49:11;;;;;;;7.85;3.35;;;9.80;46.90;;;8.87;37.81;99459.66;5007395;28;20428;-85
2021/04/14 09:51:40;;;;;;;12.25;4.40;;;9.80;47.10;;;8.82;38.37;99451.47;5024394;28;20692;-84
2021/04/14 09:54:11;;;;;;;6.43;3.05;;;9.80;47.70;;;9.05;36.74;99443.31;5032127;28;20415;-84
2021/04/14 09:56:46;;;;;;;10.05;3.15;;;9.80;46.20;;;8.90;36.73;99444.22;5040988;28;20433;-85
2021/04/14 09:59:17;;;;;;;6.40;2.88;;;9.90;45.80;;;8.90;35.08;99443.41;5042671;28;20399;-85
2021/04/14 10:01:46;;;;;;;7.32;2.72;;;9.80;43.10;;;9.15;35.15;99433.25;5043509;28;20419;-85
2021/04/14 10:04:20;;;;;;;5.57;2.60;;;10.00;44.00;;;8.85;34.14;99437.88;5043458;28;20404;-84
2021/04/14 10:06:48;;;;;;;7.00;2.90;;;9.80;42.60;;;8.65;35.51;99435.03;5024085;28;20518;-85
2021/04/14 10:09:23;;;;;;;7.97;2.65;;;9.70;43.60;;;7.69;36.58;99430.03;5042806;28;20414;-83
2021/04/14 10:11:50;;;;;;;8.33;3.30;;;9.00;44.00;;;7.46;37.00;99430.13;5041992;28;20706;-82
2021/04/14 10:14:20;;;;;;;5.00;2.53;;;8.50;45.30;;;7.75;35.88;99432.75;5042816;28;20411;-83
2021/04/14 10:16:49;;;;;;;8.82;2.40;;;8.60;44.60;;;7.94;34.41;99425.31;5027856;28;20435;-84
2021/04/14 10:21:51;;;;;;;6.82;2.92;;;9.00;43.70;;;7.80;35.46;99426.94;5089276;23;20425;-86
2021/04/14 10:24:19;;;;;;;5.20;2.63;;;9.00;43.40;;;7.22;36.04;99415.38;5022932;28;20451;-85
2021/04/14 10:26:52;;;;;;;8.32;3.65;;;8.30;43.40;;;7.66;36.65;99417.25;5023387;28;20400;-85
2021/04/14 10:29:22;;;;;;;12.23;4.30;;;8.50;45.30;;;7.81;36.88;99411.97;5025310;28;20564;-84
2021/04/14 10:31:48;;;;;;;8.98;3.47;;;8.70;45.20;;;7.98;37.09;99414.19;5026429;28;20405;-83
2021/04/14 10:34:26;;;;;;;7.68;3.10;;;8.90;45.70;;;8.13;36.94;99401.78;5012576;28;20428;-83
2021/04/14 10:36:53;;;;;;;7.30;3.40;;;9.00;45.50;;;8.51;36.88;99418.25;5009735;28;20463;-85
2021/04/14 10:39:30;;;;;;;9.02;3.80;;;9.40;45.90;;;8.28;38.43;99409.66;5029585;28;20447;-86
2021/04/14 10:41:59;;;;;;;10.57;3.72;;;9.30;46.80;;;7.94;38.71;99412.13;5014286;28;20432;-84
2021/04/14 10:44:31;;;;;;;8.50;3.30;;;9.00;46.90;;;7.85;39.15;99415.84;5027355;28;20429;-85
2021/04/14 10:47:03;;;;;;;10.07;3.65;;;8.90;47.90;;;7.74;39.28;99414.50;5027254;28;20412;-85